Terminal Aerodrome Forecast
Issued by NWS Dodge City, KS

Home | Current Version | Previous Version | Graphics & Text | Print | Product List | Glossary Off
Versions: 1 2 3 4 5 6 7 8 9 10 11 12 13 14 15 16 17 18 19

000
FTUS43 KDDC 241120
TAFDDC
TAF
KDDC 241120Z 2412/2512 14006KT P6SM FEW090
     FM241900 35020G30KT P6SM VCSH OVC030
     FM242200 35017G25KT 6SM -SHRA OVC015
     FM250500 34012KT 5SM -RA OVC015=

USA.gov is the U.S. government's official web portal to all federal, state and local government web resources and services.